Time;durP1;ratioP1;P1;durP2;ratioP2;P2;SDS_P1;SDS_P2;PMS_P1;PMS_P2;Temp;Humidity;BMP_temperature;BMP_pressure;BME280_temperature;BME280_humidity;BME280_pressure;Samples;Min_cycle;Max_cycle;Signal;HPM_P1;HPM_P2
2023/02/11 00:01:48;;;;;;;45.90;23.70;;;;;;;;;;5055959;28;20024;-77
2023/02/11 00:04:33;;;;;;;52.88;23.70;;;;;;;;;;5055554;28;20081;-77
2023/02/11 00:07:19;;;;;;;51.85;24.42;;;;;;;;;;5055376;28;20021;-78
2023/02/11 00:10:08;;;;;;;56.42;26.73;;;;;;;;;;5055522;28;20376;-79
2023/02/11 00:12:54;;;;;;;54.28;24.98;;;;;;;;;;5056173;28;20029;-77
2023/02/11 00:15:39;;;;;;;51.80;24.42;;;;;;;;;;5055724;28;20021;-79
2023/02/11 00:18:25;;;;;;;46.42;22.67;;;;;;;;;;5056840;28;20457;-77
2023/02/11 00:21:12;;;;;;;43.75;20.92;;;;;;;;;;5055072;28;20464;-78
2023/02/11 00:24:00;;;;;;;40.72;19.33;;;;;;;;;;5055928;28;20357;-78
2023/02/11 00:26:46;;;;;;;41.72;20.40;;;;;;;;;;5055538;28;20025;-76
2023/02/11 00:29:31;;;;;;;39.42;20.38;;;;;;;;;;5055775;28;20104;-78
2023/02/11 00:32:17;;;;;;;41.88;19.55;;;;;;;;;;5055328;28;20059;-77
2023/02/11 00:35:02;;;;;;;42.40;20.17;;;;;;;;;;5055610;28;20013;-79
2023/02/11 00:37:48;;;;;;;44.30;20.95;;;;;;;;;;5055717;28;20037;-77
2023/02/11 00:40:34;;;;;;;48.45;21.88;;;;;;;;;;5055522;28;20370;-71
2023/02/11 00:43:19;;;;;;;64.95;29.20;;;;;;;;;;5055361;28;20170;-71
2023/02/11 00:46:05;;;;;;;44.85;21.63;;;;;;;;;;5055581;28;20044;-77
2023/02/11 00:48:53;;;;;;;43.22;20.80;;;;;;;;;;5055379;28;20059;-77
2023/02/11 00:51:39;;;;;;;43.50;21.20;;;;;;;;;;5055163;28;20036;-78
2023/02/11 00:54:25;;;;;;;50.05;23.05;;;;;;;;;;5055237;28;20016;-76
2023/02/11 00:57:10;;;;;;;46.10;21.65;;;;;;;;;;5055148;28;20158;-77
2023/02/11 00:59:56;;;;;;;46.17;21.40;;;;;;;;;;5054595;28;20131;-72
2023/02/11 01:02:41;;;;;;;48.20;21.30;;;;;;;;;;5055044;28;20066;-79
2023/02/11 01:05:27;;;;;;;44.67;20.73;;;;;;;;;;5054899;28;20017;-77
2023/02/11 01:08:13;;;;;;;49.03;21.67;;;;;;;;;;5054887;28;20112;-76
2023/02/11 01:11:00;;;;;;;48.20;21.05;;;;;;;;;;5054780;28;20083;-77
2023/02/11 01:13:46;;;;;;;44.85;21.35;;;;;;;;;;5054655;28;20013;-76
2023/02/11 01:16:32;;;;;;;42.88;21.23;;;;;;;;;;5055105;28;20049;-77
2023/02/11 01:19:17;;;;;;;44.78;20.45;;;;;;;;;;5054734;28;20040;-77
2023/02/11 01:22:03;;;;;;;39.78;19.25;;;;;;;;;;5054112;28;20453;-78
2023/02/11 01:24:49;;;;;;;43.72;20.35;;;;;;;;;;5054283;28;20515;-77
2023/02/11 01:27:35;;;;;;;43.85;20.02;;;;;;;;;;5054517;28;20024;-75
2023/02/11 01:30:21;;;;;;;45.45;20.02;;;;;;;;;;5055259;28;20025;-74
2023/02/11 01:33:06;;;;;;;42.60;20.13;;;;;;;;;;5068142;28;20045;-72
2023/02/11 01:35:52;;;;;;;42.55;19.35;;;;;;;;;;5066627;28;20051;-75
2023/02/11 01:38:39;;;;;;;40.05;18.80;;;;;;;;;;5056661;28;20021;-76
2023/02/11 01:41:25;;;;;;;41.03;19.48;;;;;;;;;;5055439;28;20102;-76
2023/02/11 01:44:21;;;;;;;43.28;20.27;;;;;;;;;;5054717;28;20021;-74
2023/02/11 01:47:06;;;;;;;42.70;20.42;;;;;;;;;;5054459;28;20452;-76
2023/02/11 01:49:56;;;;;;;41.70;20.00;;;;;;;;;;5054159;28;20461;-75
2023/02/11 01:52:42;;;;;;;49.10;21.80;;;;;;;;;;5054157;28;20365;-76
2023/02/11 01:58:37;;;;;;;43.92;20.83;;;;;;;;;;5055193;28;20107;-76
2023/02/11 02:01:24;;;;;;;46.30;20.88;;;;;;;;;;5053953;28;20114;-74
2023/02/11 02:04:10;;;;;;;43.30;20.58;;;;;;;;;;5054427;28;20029;-78
2023/02/11 02:07:01;;;;;;;39.15;19.17;;;;;;;;;;5054782;28;20060;-71
2023/02/11 02:09:50;;;;;;;42.47;20.40;;;;;;;;;;5055115;28;20107;-76
2023/02/11 02:12:36;;;;;;;42.25;19.83;;;;;;;;;;5054560;28;20040;-77
2023/02/11 02:15:36;;;;;;;43.83;20.08;;;;;;;;;;5054285;28;20024;-77
2023/02/11 02:18:31;;;;;;;42.90;20.33;;;;;;;;;;5054924;28;20021;-75
2023/02/11 02:21:26;;;;;;;44.30;19.98;;;;;;;;;;5054431;28;20024;-77
2023/02/11 02:24:30;;;;;;;47.13;19.27;;;;;;;;;;5054559;28;20031;-77
2023/02/11 02:27:34;;;;;;;40.35;19.33;;;;;;;;;;5054928;28;20083;-77
2023/02/11 02:30:20;;;;;;;47.95;19.92;;;;;;;;;;5054609;28;20060;-76
2023/02/11 02:33:05;;;;;;;46.10;20.60;;;;;;;;;;5054452;28;20053;-75
2023/02/11 02:35:51;;;;;;;42.35;21.17;;;;;;;;;;5054625;28;20414;-75
2023/02/11 02:38:40;;;;;;;42.63;20.15;;;;;;;;;;5054444;28;20442;-75
2023/02/11 02:41:28;;;;;;;42.63;20.67;;;;;;;;;;5054819;28;20025;-76
2023/02/11 02:44:14;;;;;;;44.60;20.85;;;;;;;;;;5054766;28;20091;-78
2023/02/11 02:46:59;;;;;;;45.10;21.48;;;;;;;;;;5054762;28;20028;-77
2023/02/11 02:49:45;;;;;;;43.58;20.65;;;;;;;;;;5054168;28;20021;-76
2023/02/11 02:52:36;;;;;;;42.75;20.52;;;;;;;;;;5054999;28;20045;-77
2023/02/11 02:55:31;;;;;;;43.25;21.42;;;;;;;;;;5054365;28;20072;-77
2023/02/11 02:58:16;;;;;;;47.55;21.98;;;;;;;;;;5054663;28;20094;-77
2023/02/11 03:01:02;;;;;;;41.97;19.65;;;;;;;;;;5054113;28;20052;-76
2023/02/11 03:03:53;;;;;;;42.22;20.02;;;;;;;;;;5054213;28;20028;-76
2023/02/11 03:06:38;;;;;;;48.67;21.10;;;;;;;;;;5054596;28;20090;-76
2023/02/11 03:09:30;;;;;;;44.60;21.13;;;;;;;;;;5054502;28;20122;-76
2023/02/11 03:12:16;;;;;;;41.20;20.15;;;;;;;;;;5056807;28;20111;-76
2023/02/11 03:15:04;;;;;;;44.22;18.83;;;;;;;;;;5057829;28;20361;-75
2023/02/11 03:17:50;;;;;;;43.50;20.90;;;;;;;;;;5057067;28;20461;-76
2023/02/11 03:20:37;;;;;;;43.05;19.77;;;;;;;;;;5057383;28;20468;-78
2023/02/11 03:23:27;;;;;;;41.03;19.27;;;;;;;;;;5057512;28;20087;-78
2023/02/11 03:26:12;;;;;;;41.72;20.60;;;;;;;;;;5057361;28;20017;-77
2023/02/11 03:29:17;;;;;;;42.13;19.52;;;;;;;;;;5056632;28;20021;-78
2023/02/11 03:32:11;;;;;;;44.95;19.80;;;;;;;;;;5056189;28;20473;-77
2023/02/11 03:35:00;;;;;;;43.80;19.95;;;;;;;;;;5057372;28;20075;-78
2023/02/11 03:38:14;;;;;;;46.70;19.95;;;;;;;;;;5057137;28;20032;-77
2023/02/11 03:41:01;;;;;;;39.28;19.52;;;;;;;;;;5051771;28;20521;-79
2023/02/11 03:43:51;;;;;;;40.72;17.95;;;;;;;;;;5057111;28;20028;-77
2023/02/11 03:46:38;;;;;;;38.40;17.77;;;;;;;;;;5056736;28;20075;-77
2023/02/11 03:49:25;;;;;;;42.53;18.15;;;;;;;;;;5056760;28;20043;-78
2023/02/11 03:52:11;;;;;;;43.25;19.15;;;;;;;;;;5056731;28;20099;-79
2023/02/11 03:54:59;;;;;;;37.65;18.73;;;;;;;;;;5056386;28;20449;-79
2023/02/11 03:57:45;;;;;;;40.83;18.50;;;;;;;;;;5056076;28;20025;-78
2023/02/11 04:00:41;;;;;;;40.92;19.08;;;;;;;;;;5057438;28;20452;-79
2023/02/11 04:03:26;;;;;;;43.42;19.52;;;;;;;;;;5061253;28;20033;-74
2023/02/11 04:06:12;;;;;;;44.88;20.23;;;;;;;;;;5068847;28;20012;-79
2023/02/11 04:08:57;;;;;;;42.05;20.00;;;;;;;;;;5074288;28;20017;-73
2023/02/11 04:11:43;;;;;;;43.95;19.30;;;;;;;;;;5056744;28;20082;-75
2023/02/11 04:14:29;;;;;;;46.15;20.33;;;;;;;;;;5056500;28;20065;-75
2023/02/11 04:17:14;;;;;;;43.35;18.85;;;;;;;;;;5056615;28;20017;-77
2023/02/11 04:20:00;;;;;;;42.70;19.38;;;;;;;;;;5056922;28;20399;-76
2023/02/11 04:22:45;;;;;;;41.92;19.67;;;;;;;;;;5056337;28;20028;-75
2023/02/11 04:25:31;;;;;;;40.75;19.90;;;;;;;;;;5057216;28;20023;-78
2023/02/11 04:28:17;;;;;;;41.95;20.33;;;;;;;;;;5056122;28;20202;-75
2023/02/11 04:31:02;;;;;;;45.60;19.98;;;;;;;;;;5057120;28;20079;-78
2023/02/11 04:33:48;;;;;;;41.72;19.70;;;;;;;;;;5056010;28;20040;-79
2023/02/11 04:36:33;;;;;;;43.33;20.85;;;;;;;;;;5055812;28;20017;-76
2023/02/11 04:39:19;;;;;;;43.95;20.33;;;;;;;;;;5057368;28;20024;-77
2023/02/11 04:42:05;;;;;;;40.13;19.35;;;;;;;;;;5055863;28;20484;-77
2023/02/11 04:44:50;;;;;;;45.35;20.65;;;;;;;;;;5056439;28;20025;-78
2023/02/11 04:47:36;;;;;;;44.53;20.02;;;;;;;;;;5055775;28;20017;-76
2023/02/11 04:50:22;;;;;;;42.92;19.55;;;;;;;;;;5055701;28;20341;-76
2023/02/11 04:53:07;;;;;;;43.92;21.25;;;;;;;;;;5056648;28;20417;-77
2023/02/11 04:55:53;;;;;;;44.63;20.13;;;;;;;;;;5056012;28;20516;-77
2023/02/11 04:58:39;;;;;;;45.50;20.05;;;;;;;;;;5056138;28;20204;-78
2023/02/11 05:01:24;;;;;;;42.10;20.80;;;;;;;;;;5056703;28;20036;-74
2023/02/11 05:04:10;;;;;;;43.47;20.67;;;;;;;;;;5059935;28;20025;-76
2023/02/11 05:06:56;;;;;;;42.40;20.08;;;;;;;;;;5055686;28;20369;-75
2023/02/11 05:09:41;;;;;;;42.38;20.23;;;;;;;;;;5054798;28;20049;-74
2023/02/11 05:12:27;;;;;;;44.30;20.13;;;;;;;;;;5055887;28;20017;-76
2023/02/11 05:15:12;;;;;;;45.33;20.33;;;;;;;;;;5056365;28;20029;-72
2023/02/11 05:17:58;;;;;;;47.55;22.00;;;;;;;;;;5056050;28;20029;-74
2023/02/11 05:20:43;;;;;;;45.83;21.33;;;;;;;;;;5055376;28;20021;-76
2023/02/11 05:23:29;;;;;;;50.83;23.13;;;;;;;;;;5055926;28;20036;-76
2023/02/11 05:26:15;;;;;;;48.95;20.55;;;;;;;;;;5055395;28;20017;-75
2023/02/11 05:29:01;;;;;;;53.25;22.38;;;;;;;;;;5054632;28;20120;-75
2023/02/11 05:31:46;;;;;;;48.25;21.90;;;;;;;;;;5054886;28;20119;-75
2023/02/11 05:34:32;;;;;;;48.97;22.52;;;;;;;;;;5054821;28;20029;-76
2023/02/11 05:37:18;;;;;;;53.17;23.05;;;;;;;;;;5054424;28;20028;-74
2023/02/11 05:40:04;;;;;;;50.85;22.95;;;;;;;;;;5055520;28;20025;-76
2023/02/11 05:42:49;;;;;;;47.38;22.67;;;;;;;;;;5055027;28;20104;-73
2023/02/11 05:45:35;;;;;;;57.30;26.52;;;;;;;;;;5055041;28;20021;-75
2023/02/11 05:48:20;;;;;;;57.88;25.02;;;;;;;;;;5055309;28;20033;-76
2023/02/11 05:51:06;;;;;;;49.88;23.67;;;;;;;;;;5055369;28;20016;-76
2023/02/11 05:53:52;;;;;;;55.97;26.20;;;;;;;;;;5055280;28;20165;-76
2023/02/11 05:56:37;;;;;;;55.75;25.38;;;;;;;;;;5055146;28;20016;-75
2023/02/11 05:59:23;;;;;;;54.17;24.45;;;;;;;;;;5054889;28;20031;-74
2023/02/11 06:02:12;;;;;;;59.17;26.80;;;;;;;;;;5053598;28;20024;-76
2023/02/11 06:04:57;;;;;;;54.13;25.85;;;;;;;;;;5055066;28;20047;-75
2023/02/11 06:07:43;;;;;;;54.42;25.40;;;;;;;;;;5054952;28;20021;-75
2023/02/11 06:10:28;;;;;;;56.45;27.45;;;;;;;;;;5054975;28;20028;-75
2023/02/11 06:16:25;;;;;;;135.57;59.15;;;;;;;;;;5053506;28;20343;-75
2023/02/11 06:19:11;;;;;;;60.30;29.88;;;;;;;;;;5054913;28;20343;-76
2023/02/11 06:21:57;;;;;;;57.65;26.98;;;;;;;;;;5055227;28;20452;-75
2023/02/11 06:24:42;;;;;;;56.03;26.33;;;;;;;;;;5055049;28;20032;-75
2023/02/11 06:27:28;;;;;;;54.85;27.52;;;;;;;;;;5055500;28;20040;-74
2023/02/11 06:30:14;;;;;;;60.88;27.98;;;;;;;;;;5059154;28;20025;-74
2023/02/11 06:32:59;;;;;;;59.42;27.42;;;;;;;;;;5065074;28;20037;-73
2023/02/11 06:35:45;;;;;;;61.50;27.60;;;;;;;;;;5064432;28;20017;-74
2023/02/11 06:38:30;;;;;;;66.97;30.27;;;;;;;;;;5055884;28;20033;-76
2023/02/11 06:41:18;;;;;;;67.47;28.85;;;;;;;;;;5054569;28;20051;-75
2023/02/11 06:44:04;;;;;;;61.05;29.33;;;;;;;;;;5059553;28;20327;-76
2023/02/11 06:46:50;;;;;;;63.53;29.55;;;;;;;;;;5058525;28;20024;-76
2023/02/11 06:49:35;;;;;;;64.10;30.50;;;;;;;;;;5058883;28;20091;-76
2023/02/11 06:52:24;;;;;;;62.33;29.35;;;;;;;;;;5058439;28;20025;-76
2023/02/11 06:55:09;;;;;;;58.53;27.48;;;;;;;;;;5057760;28;20078;-77
2023/02/11 06:57:55;;;;;;;54.22;26.63;;;;;;;;;;5058968;28;20029;-75
2023/02/11 07:00:40;;;;;;;54.85;26.13;;;;;;;;;;5058672;28;20028;-76
2023/02/11 07:03:26;;;;;;;53.53;24.63;;;;;;;;;;5057807;28;20032;-75
2023/02/11 07:06:15;;;;;;;55.05;25.30;;;;;;;;;;5058180;28;20032;-76
2023/02/11 07:09:01;;;;;;;56.17;25.63;;;;;;;;;;5057457;28;20017;-75
2023/02/11 07:11:46;;;;;;;58.60;26.73;;;;;;;;;;5058919;28;20025;-75
2023/02/11 07:14:32;;;;;;;64.90;27.20;;;;;;;;;;5058416;28;20025;-75
2023/02/11 07:17:17;;;;;;;56.03;26.65;;;;;;;;;;5059284;28;20031;-75
2023/02/11 07:20:03;;;;;;;60.97;27.35;;;;;;;;;;5058696;28;20454;-74
2023/02/11 07:22:49;;;;;;;51.28;25.10;;;;;;;;;;5058858;28;20035;-75
2023/02/11 07:25:35;;;;;;;47.60;23.00;;;;;;;;;;5058940;28;20019;-73
2023/02/11 07:28:20;;;;;;;51.63;25.50;;;;;;;;;;5060404;28;20028;-76
2023/02/11 07:31:06;;;;;;;55.63;24.20;;;;;;;;;;5065951;28;20025;-73
2023/02/11 07:33:53;;;;;;;51.70;23.80;;;;;;;;;;5061056;28;20082;-76
2023/02/11 07:36:38;;;;;;;50.15;24.10;;;;;;;;;;5062191;28;20414;-75
2023/02/11 07:39:26;;;;;;;47.58;22.80;;;;;;;;;;5063000;28;20056;-73
2023/02/11 07:42:11;;;;;;;49.40;23.42;;;;;;;;;;5067220;28;20020;-74
2023/02/11 07:44:57;;;;;;;44.38;21.20;;;;;;;;;;5068153;28;20029;-75
2023/02/11 07:47:43;;;;;;;43.17;20.80;;;;;;;;;;5069245;28;20024;-76
2023/02/11 07:50:28;;;;;;;50.55;22.38;;;;;;;;;;5063228;28;20457;-74
2023/02/11 07:53:14;;;;;;;46.70;21.65;;;;;;;;;;5061817;28;20025;-74
2023/02/11 07:55:59;;;;;;;46.35;21.58;;;;;;;;;;5059009;28;20013;-76
2023/02/11 07:58:45;;;;;;;43.35;21.50;;;;;;;;;;5058969;28;20134;-76
2023/02/11 08:01:31;;;;;;;43.17;21.80;;;;;;;;;;5058692;28;20358;-75
2023/02/11 08:04:16;;;;;;;44.28;21.77;;;;;;;;;;5058686;28;20025;-76
2023/02/11 08:07:02;;;;;;;43.33;22.17;;;;;;;;;;5057432;28;20365;-77
2023/02/11 08:09:48;;;;;;;45.80;21.70;;;;;;;;;;5057634;28;20064;-75
2023/02/11 08:12:33;;;;;;;40.38;21.98;;;;;;;;;;5058151;28;20364;-74
2023/02/11 08:15:19;;;;;;;43.35;22.05;;;;;;;;;;5057804;28;20025;-75
2023/02/11 08:18:05;;;;;;;42.42;21.00;;;;;;;;;;5057265;28;20029;-74
2023/02/11 08:20:50;;;;;;;43.78;20.92;;;;;;;;;;5056877;28;20099;-76
2023/02/11 08:23:36;;;;;;;42.20;21.52;;;;;;;;;;5057278;28;20456;-77
2023/02/11 08:26:24;;;;;;;44.88;20.48;;;;;;;;;;5059009;28;20083;-75
2023/02/11 08:29:10;;;;;;;42.97;19.27;;;;;;;;;;5059745;28;20469;-75
2023/02/11 08:31:56;;;;;;;36.80;18.70;;;;;;;;;;5057821;28;20079;-76
2023/02/11 08:34:41;;;;;;;39.95;19.75;;;;;;;;;;5061540;28;20503;-77
2023/02/11 08:37:27;;;;;;;37.28;18.85;;;;;;;;;;5061087;28;20021;-77
2023/02/11 08:40:13;;;;;;;37.40;19.25;;;;;;;;;;5059366;28;20040;-76
2023/02/11 08:42:58;;;;;;;34.78;18.63;;;;;;;;;;5058563;28;20361;-76
2023/02/11 08:45:44;;;;;;;39.50;19.15;;;;;;;;;;5057247;28;20021;-77
2023/02/11 08:48:30;;;;;;;41.15;19.48;;;;;;;;;;5057375;28;20027;-77
2023/02/11 08:51:23;;;;;;;32.70;18.50;;;;;;;;;;5055643;28;20024;-76
2023/02/11 08:54:08;;;;;;;37.25;19.08;;;;;;;;;;5055253;28;20377;-77
2023/02/11 08:56:54;;;;;;;35.72;18.60;;;;;;;;;;5054814;28;20459;-76
2023/02/11 08:59:40;;;;;;;36.55;19.13;;;;;;;;;;5059151;28;20438;-77
2023/02/11 09:02:25;;;;;;;39.72;20.20;;;;;;;;;;5058132;28;20025;-76
2023/02/11 09:05:11;;;;;;;38.67;20.60;;;;;;;;;;5058789;28;20021;-76
2023/02/11 09:07:57;;;;;;;34.22;19.05;;;;;;;;;;5059222;28;20083;-76
2023/02/11 09:10:42;;;;;;;39.92;19.42;;;;;;;;;;5055102;28;20094;-76
2023/02/11 09:13:30;;;;;;;36.72;19.80;;;;;;;;;;5054691;28;20053;-76
2023/02/11 09:16:17;;;;;;;38.13;20.80;;;;;;;;;;5056104;28;20021;-76
2023/02/11 09:19:04;;;;;;;36.38;20.27;;;;;;;;;;5054427;28;20025;-77
2023/02/11 09:21:50;;;;;;;38.75;20.10;;;;;;;;;;5056602;28;20353;-78
2023/02/11 09:24:35;;;;;;;41.83;21.08;;;;;;;;;;5055782;28;20024;-76
2023/02/11 09:27:21;;;;;;;40.85;21.70;;;;;;;;;;5056350;28;20017;-76
2023/02/11 09:30:07;;;;;;;43.38;22.67;;;;;;;;;;5056071;28;20063;-77
2023/02/11 09:32:52;;;;;;;40.35;21.55;;;;;;;;;;5055077;28;20053;-76
2023/02/11 09:35:38;;;;;;;42.88;22.45;;;;;;;;;;5055332;28;20401;-78
2023/02/11 09:38:24;;;;;;;41.65;21.73;;;;;;;;;;5054199;28;20043;-78
2023/02/11 09:41:24;;;;;;;38.35;21.45;;;;;;;;;;5055142;28;20082;-76
2023/02/11 09:44:17;;;;;;;42.42;21.55;;;;;;;;;;5056122;28;20028;-76
2023/02/11 09:47:21;;;;;;;41.85;22.33;;;;;;;;;;5055124;28;20028;-76
2023/02/11 09:50:12;;;;;;;43.40;22.55;;;;;;;;;;5055155;28;20029;-77
2023/02/11 09:53:00;;;;;;;43.95;22.80;;;;;;;;;;5055305;28;20092;-77
2023/02/11 09:55:48;;;;;;;44.30;22.88;;;;;;;;;;5055368;28;20092;-76
2023/02/11 09:58:34;;;;;;;40.95;21.38;;;;;;;;;;5054480;28;20020;-75
2023/02/11 10:01:32;;;;;;;36.78;20.63;;;;;;;;;;5055909;28;20438;-77
2023/02/11 10:04:43;;;;;;;40.78;21.70;;;;;;;;;;5054646;28;20073;-76
2023/02/11 10:08:08;;;;;;;48.33;22.73;;;;;;;;;;5053838;28;20104;-76
2023/02/11 10:11:13;;;;;;;45.15;21.10;;;;;;;;;;4994082;28;20368;-75
2023/02/11 10:14:01;;;;;;;44.30;22.77;;;;;;;;;;4993682;28;20468;-75
2023/02/11 10:16:52;;;;;;;42.35;20.75;;;;;;;;;;5055168;28;20461;-75
2023/02/11 10:19:50;;;;;;;44.67;21.67;;;;;;;;;;5054463;28;20032;-76
2023/02/11 10:22:38;;;;;;;40.50;20.02;;;;;;;;;;5054734;28;20028;-74
2023/02/11 10:25:37;;;;;;;36.95;20.17;;;;;;;;;;5053759;28;20035;-73
2023/02/11 10:28:27;;;;;;;42.40;21.00;;;;;;;;;;5053593;28;20029;-74
2023/02/11 10:31:18;;;;;;;39.97;20.52;;;;;;;;;;5054447;28;20020;-75
2023/02/11 10:34:10;;;;;;;44.15;20.67;;;;;;;;;;5053829;28;20484;-74
2023/02/11 10:36:56;;;;;;;35.55;20.10;;;;;;;;;;5054800;28;20075;-74
2023/02/11 10:39:42;;;;;;;35.63;19.08;;;;;;;;;;5053629;28;20017;-74
2023/02/11 10:42:28;;;;;;;35.83;19.10;;;;;;;;;;5053977;28;20346;-72
2023/02/11 10:45:34;;;;;;;37.92;19.77;;;;;;;;;;5054029;28;20025;-72
2023/02/11 10:48:38;;;;;;;35.28;19.25;;;;;;;;;;5055794;28;20029;-74
2023/02/11 10:51:28;;;;;;;38.85;19.48;;;;;;;;;;5053880;28;20091;-74
2023/02/11 10:54:20;;;;;;;37.63;20.25;;;;;;;;;;5054306;28;20091;-76
2023/02/11 10:57:06;;;;;;;37.38;19.98;;;;;;;;;;5054901;28;20025;-76
2023/02/11 10:59:55;;;;;;;37.88;19.45;;;;;;;;;;5054266;28;20029;-74
2023/02/11 11:02:43;;;;;;;38.38;19.45;;;;;;;;;;5054453;28;20404;-74
2023/02/11 11:05:31;;;;;;;38.33;21.10;;;;;;;;;;5054593;28;20403;-74
2023/02/11 11:08:17;;;;;;;34.50;19.27;;;;;;;;;;5054279;28;20021;-75
2023/02/11 11:11:04;;;;;;;36.83;18.80;;;;;;;;;;5054183;28;20028;-71
2023/02/11 11:13:52;;;;;;;36.88;20.08;;;;;;;;;;5054116;28;20025;-74
2023/02/11 11:16:38;;;;;;;39.33;19.92;;;;;;;;;;5053722;28;20021;-75
2023/02/11 11:19:24;;;;;;;36.53;19.45;;;;;;;;;;5053132;28;20108;-74
2023/02/11 11:22:18;;;;;;;33.53;17.88;;;;;;;;;;5057051;28;20021;-74
2023/02/11 11:25:04;;;;;;;33.13;17.50;;;;;;;;;;5071021;28;20020;-73
2023/02/11 11:27:51;;;;;;;33.90;17.92;;;;;;;;;;5072787;28;20021;-74
2023/02/11 11:30:41;;;;;;;29.95;16.77;;;;;;;;;;5078961;28;20020;-73
2023/02/11 11:33:32;;;;;;;30.00;17.23;;;;;;;;;;5089608;28;20071;-72
2023/02/11 11:36:22;;;;;;;30.45;16.38;;;;;;;;;;5089433;28;20040;-75
2023/02/11 11:39:14;;;;;;;28.60;16.92;;;;;;;;;;5077775;28;20368;-75
2023/02/11 11:41:59;;;;;;;28.40;15.70;;;;;;;;;;5076671;28;20097;-73
2023/02/11 11:44:54;;;;;;;26.60;15.75;;;;;;;;;;5077320;28;20084;-75
2023/02/11 11:47:46;;;;;;;29.95;16.55;;;;;;;;;;5076919;28;20027;-72
2023/02/11 11:50:41;;;;;;;29.10;15.75;;;;;;;;;;5076430;28;20036;-74
2023/02/11 11:53:50;;;;;;;27.13;15.65;;;;;;;;;;5075338;28;20017;-74
2023/02/11 11:56:39;;;;;;;29.38;16.40;;;;;;;;;;5075719;28;20017;-76
2023/02/11 11:59:24;;;;;;;33.00;15.70;;;;;;;;;;5075696;28;20043;-74
2023/02/11 12:02:18;;;;;;;25.77;15.45;;;;;;;;;;5074464;28;20020;-74
2023/02/11 12:05:19;;;;;;;26.70;15.48;;;;;;;;;;5075936;28;20028;-74
2023/02/11 12:08:17;;;;;;;30.27;16.13;;;;;;;;;;5074748;28;20025;-75
2023/02/11 12:11:24;;;;;;;30.35;14.45;;;;;;;;;;5074941;28;20024;-74
2023/02/11 12:14:16;;;;;;;28.42;15.32;;;;;;;;;;5075150;28;20020;-74
2023/02/11 12:17:19;;;;;;;32.08;16.00;;;;;;;;;;5074981;28;20538;-74
2023/02/11 12:20:24;;;;;;;26.75;15.52;;;;;;;;;;5074768;28;20024;-74
2023/02/11 12:23:13;;;;;;;28.70;16.05;;;;;;;;;;5075582;28;20103;-74
2023/02/11 12:26:08;;;;;;;30.73;17.45;;;;;;;;;;5077682;28;20365;-74
2023/02/11 12:29:09;;;;;;;27.48;14.82;;;;;;;;;;5080855;28;20025;-73
2023/02/11 12:32:16;;;;;;;28.98;16.00;;;;;;;;;;5082868;28;20055;-75
2023/02/11 12:35:17;;;;;;;25.88;14.52;;;;;;;;;;5078785;28;20024;-76
2023/02/11 12:38:02;;;;;;;29.70;14.27;;;;;;;;;;5075241;28;20332;-75
2023/02/11 12:41:03;;;;;;;25.88;13.57;;;;;;;;;;5073901;28;20093;-74
2023/02/11 12:43:49;;;;;;;27.25;14.25;;;;;;;;;;5074479;28;20453;-73
2023/02/11 12:46:49;;;;;;;25.08;13.98;;;;;;;;;;5074464;28;20522;-74
2023/02/11 12:49:48;;;;;;;24.73;13.98;;;;;;;;;;5074468;28;20388;-73
2023/02/11 12:52:33;;;;;;;25.60;14.35;;;;;;;;;;5089888;28;20017;-75
2023/02/11 12:55:22;;;;;;;26.48;14.77;;;;;;;;;;5076621;28;20136;-73
2023/02/11 12:58:12;;;;;;;25.88;13.98;;;;;;;;;;5074844;28;20467;-73
2023/02/11 13:01:03;;;;;;;29.15;13.85;;;;;;;;;;5074073;28;20029;-74
2023/02/11 13:03:54;;;;;;;27.13;14.82;;;;;;;;;;5075485;28;20023;-73
2023/02/11 13:06:54;;;;;;;27.35;14.52;;;;;;;;;;5074408;28;20072;-73
2023/02/11 13:10:06;;;;;;;25.20;13.98;;;;;;;;;;5074816;28;20071;-74
2023/02/11 13:16:04;;;;;;;27.80;14.90;;;;;;;;;;5074643;28;20020;-73
2023/02/11 13:19:09;;;;;;;29.35;14.60;;;;;;;;;;5073388;28;20020;-74
2023/02/11 13:21:54;;;;;;;27.20;13.85;;;;;;;;;;5072649;28;20020;-73
2023/02/11 13:24:47;;;;;;;24.33;14.40;;;;;;;;;;5074872;28;20052;-75
2023/02/11 13:27:33;;;;;;;26.17;14.13;;;;;;;;;;5074489;28;20357;-74
2023/02/11 13:30:28;;;;;;;23.65;13.68;;;;;;;;;;5074174;28;20024;-75
2023/02/11 13:33:18;;;;;;;22.83;12.93;;;;;;;;;;5074125;28;20530;-75
2023/02/11 13:36:03;;;;;;;26.90;14.55;;;;;;;;;;5073743;28;20059;-74
2023/02/11 13:38:52;;;;;;;25.85;13.27;;;;;;;;;;5073255;28;20441;-74
2023/02/11 13:41:39;;;;;;;22.20;12.45;;;;;;;;;;5073595;28;20051;-75
2023/02/11 13:44:25;;;;;;;28.48;13.25;;;;;;;;;;5074557;28;20048;-75
2023/02/11 13:47:21;;;;;;;28.05;15.93;;;;;;;;;;5073652;28;20132;-74
2023/02/11 13:50:08;;;;;;;22.63;12.65;;;;;;;;;;5073428;28;20081;-75
2023/02/11 13:53:01;;;;;;;29.90;14.48;;;;;;;;;;5072363;28;20121;-75
2023/02/11 13:55:48;;;;;;;22.83;12.55;;;;;;;;;;5074081;28;20028;-76
2023/02/11 13:58:38;;;;;;;25.65;13.13;;;;;;;;;;5073416;28;20085;-73
2023/02/11 14:01:41;;;;;;;22.00;11.98;;;;;;;;;;5073702;28;20025;-74
2023/02/11 14:10:42;;;;;;;21.80;12.15;;;;;;;;;;5073793;28;20029;-74
2023/02/11 14:13:31;;;;;;;24.60;12.45;;;;;;;;;;5072937;28;20032;-74
2023/02/11 14:16:21;;;;;;;22.52;12.52;;;;;;;;;;5072886;28;20031;-74
2023/02/11 14:19:07;;;;;;;21.83;12.20;;;;;;;;;;5072640;28;20497;-74
2023/02/11 14:22:00;;;;;;;24.55;12.63;;;;;;;;;;5073054;28;20091;-75
2023/02/11 14:24:49;;;;;;;25.20;13.50;;;;;;;;;;5072889;28;20016;-74
2023/02/11 14:27:43;;;;;;;22.60;12.93;;;;;;;;;;5072681;28;20422;-74
2023/02/11 14:30:34;;;;;;;22.27;12.43;;;;;;;;;;5072803;28;20031;-74
2023/02/11 14:33:38;;;;;;;22.90;11.82;;;;;;;;;;5073210;28;20135;-73
2023/02/11 14:36:33;;;;;;;24.20;12.27;;;;;;;;;;5072713;28;20098;-74
2023/02/11 14:39:31;;;;;;;23.65;12.40;;;;;;;;;;5073607;28;20479;-75
2023/02/11 14:42:22;;;;;;;22.80;12.52;;;;;;;;;;5073007;28;20024;-75
2023/02/11 14:45:09;;;;;;;24.67;13.20;;;;;;;;;;5072442;28;20024;-74
2023/02/11 14:48:13;;;;;;;22.85;12.38;;;;;;;;;;5073904;28;20035;-74
2023/02/11 14:51:02;;;;;;;29.25;13.38;;;;;;;;;;5072591;28;20021;-73
2023/02/11 14:53:52;;;;;;;27.00;12.82;;;;;;;;;;5073018;28;20342;-74
2023/02/11 14:56:38;;;;;;;25.25;13.07;;;;;;;;;;5072574;28;20024;-74
2023/02/11 14:59:24;;;;;;;23.38;13.35;;;;;;;;;;5072572;28;20034;-74
2023/02/11 15:02:19;;;;;;;25.17;13.43;;;;;;;;;;5075600;28;20108;-73
2023/02/11 15:05:14;;;;;;;23.52;12.40;;;;;;;;;;5086339;28;20020;-74
2023/02/11 15:08:02;;;;;;;24.92;13.52;;;;;;;;;;5076461;28;20056;-74
2023/02/11 15:10:47;;;;;;;22.50;12.68;;;;;;;;;;5077216;28;20016;-74
2023/02/11 15:13:33;;;;;;;23.17;13.07;;;;;;;;;;5076053;28;20095;-73
2023/02/11 15:16:21;;;;;;;24.90;12.70;;;;;;;;;;5076013;28;20028;-75
2023/02/11 15:19:10;;;;;;;26.15;13.65;;;;;;;;;;5076729;28;20078;-73
2023/02/11 15:21:56;;;;;;;27.85;13.63;;;;;;;;;;5082508;28;20025;-75
2023/02/11 15:24:41;;;;;;;27.23;14.07;;;;;;;;;;5082388;28;20050;-73
2023/02/11 15:27:36;;;;;;;24.33;14.30;;;;;;;;;;5076383;28;20048;-75
2023/02/11 15:30:21;;;;;;;30.05;13.27;;;;;;;;;;5076530;28;20170;-75
2023/02/11 15:33:19;;;;;;;26.95;13.63;;;;;;;;;;5076093;28;20044;-74
2023/02/11 15:36:05;;;;;;;25.50;13.10;;;;;;;;;;5076638;28;20503;-73
2023/02/11 15:39:09;;;;;;;23.23;13.32;;;;;;;;;;5076027;28;20017;-74
2023/02/11 15:41:55;;;;;;;25.88;13.02;;;;;;;;;;5076447;28;20020;-73
2023/02/11 15:44:40;;;;;;;25.15;13.05;;;;;;;;;;5075807;28;20151;-74
2023/02/11 15:47:26;;;;;;;26.08;14.15;;;;;;;;;;5075285;28;20443;-74
2023/02/11 15:50:19;;;;;;;27.23;14.25;;;;;;;;;;5075638;28;20041;-75
2023/02/11 15:53:22;;;;;;;28.58;14.20;;;;;;;;;;5074801;28;20039;-74
2023/02/11 15:56:10;;;;;;;28.75;14.60;;;;;;;;;;5075928;28;20449;-75
2023/02/11 15:58:58;;;;;;;28.63;13.77;;;;;;;;;;5075023;28;20025;-74
2023/02/11 16:01:46;;;;;;;26.88;14.05;;;;;;;;;;5075370;28;20024;-75
2023/02/11 16:04:31;;;;;;;28.40;15.00;;;;;;;;;;5076236;28;20063;-73
2023/02/11 16:07:35;;;;;;;23.67;13.32;;;;;;;;;;5074968;28;20017;-72
2023/02/11 16:10:21;;;;;;;27.48;14.93;;;;;;;;;;5074830;28;20025;-75
2023/02/11 16:13:06;;;;;;;29.05;15.45;;;;;;;;;;5075648;28;20016;-74
2023/02/11 16:15:55;;;;;;;29.65;15.88;;;;;;;;;;5074512;28;20035;-74
2023/02/11 16:18:48;;;;;;;30.60;15.80;;;;;;;;;;5076965;28;20056;-74
2023/02/11 16:21:37;;;;;;;34.20;16.75;;;;;;;;;;5088455;28;20074;-74
2023/02/11 16:24:26;;;;;;;34.08;16.48;;;;;;;;;;5089262;28;20028;-74
2023/02/11 16:27:23;;;;;;;37.70;19.83;;;;;;;;;;5081750;28;20468;-74
2023/02/11 16:30:37;;;;;;;34.30;17.17;;;;;;;;;;5075701;28;20361;-75
2023/02/11 16:33:23;;;;;;;34.38;17.58;;;;;;;;;;5068615;28;20040;-76
2023/02/11 16:36:10;;;;;;;37.72;18.20;;;;;;;;;;5075790;28;20393;-75
2023/02/11 16:38:56;;;;;;;32.63;17.30;;;;;;;;;;5074711;28;20071;-74